createdAt,value
2023-05-11T00:02:17.928Z,100684.56
2023-05-11T00:04:45.221Z,100680.56
2023-05-11T00:07:12.636Z,100683.56
2023-05-11T00:09:41.584Z,100685.56
2023-05-11T00:12:08.900Z,100680.63
2023-05-11T00:14:36.014Z,100678.28
2023-05-11T00:17:03.228Z,100674.19
2023-05-11T00:19:31.577Z,100668.28
2023-05-11T00:21:59.247Z,100678.13
2023-05-11T00:24:26.594Z,100673.03
2023-05-11T00:26:53.727Z,100673.16
2023-05-11T00:29:21.302Z,100665.34
2023-05-11T00:31:48.553Z,100663.88
2023-05-11T00:34:16.662Z,100665.03
2023-05-11T00:36:44.365Z,100662.59
2023-05-11T00:39:12.597Z,100666.19
2023-05-11T00:41:39.854Z,100670.97
2023-05-11T00:44:07.312Z,100667.69
2023-05-11T00:46:34.662Z,100676.59
2023-05-11T00:49:02.426Z,100668.78
2023-05-11T00:51:31.974Z,100669.69
2023-05-11T00:53:59.933Z,100664.53
2023-05-11T00:56:27.158Z,100666.44
2023-05-11T00:58:54.776Z,100669.19
2023-05-11T01:01:22.521Z,100664.13
2023-05-11T01:03:49.881Z,100664.34
2023-05-11T01:06:31.817Z,100667.94
2023-05-11T01:09:20.698Z,100664.47
2023-05-11T01:11:59.027Z,100667.19
2023-05-11T01:14:32.873Z,100669.94
2023-05-11T01:17:05.855Z,100671.00
2023-05-11T01:19:48.244Z,100678.28
2023-05-11T01:22:54.611Z,100679.38
2023-05-11T01:25:39.844Z,100685.78
2023-05-11T01:28:44.177Z,100689.69
2023-05-11T01:31:12.957Z,100683.03
2023-05-11T01:33:48.136Z,100686.19
2023-05-11T01:36:16.158Z,100690.84
2023-05-11T01:38:46.212Z,100692.75
2023-05-11T01:41:18.897Z,100694.53
2023-05-11T01:43:49.516Z,100695.59
2023-05-11T01:46:17.622Z,100694.09
2023-05-11T01:48:47.388Z,100695.25
2023-05-11T01:51:16.366Z,100706.91
2023-05-11T01:53:44.663Z,100697.25
2023-05-11T01:56:12.463Z,100706.97
2023-05-11T01:58:40.846Z,100704.44
2023-05-11T02:01:11.250Z,100701.03
2023-05-11T02:03:39.066Z,100699.47
2023-05-11T02:06:07.031Z,100700.50
2023-05-11T02:08:34.754Z,100707.59
2023-05-11T02:11:03.020Z,100713.06
2023-05-11T02:13:30.901Z,100716.66
2023-05-11T02:16:24.072Z,100712.34
2023-05-11T02:18:53.829Z,100712.44
2023-05-11T02:21:21.787Z,100714.34
2023-05-11T02:23:51.312Z,100720.47
2023-05-11T02:26:18.578Z,100718.03
2023-05-11T02:28:45.990Z,100724.47
2023-05-11T02:31:18.058Z,100721.06
2023-05-11T02:33:51.597Z,100725.63
2023-05-11T02:36:22.510Z,100722.44
2023-05-11T02:38:55.078Z,100719.97
2023-05-11T02:41:26.913Z,100726.41
2023-05-11T02:43:54.509Z,100717.75
2023-05-11T02:46:25.310Z,100717.75
2023-05-11T02:48:56.707Z,100720.38
2023-05-11T02:51:28.805Z,100716.13
2023-05-11T02:53:57.484Z,100717.09
2023-05-11T02:56:25.587Z,100724.34
2023-05-11T02:58:52.781Z,100726.34
2023-05-11T03:01:21.526Z,100722.13
2023-05-11T03:03:49.125Z,100731.06
2023-05-11T03:06:16.367Z,100729.28
2023-05-11T03:08:43.787Z,100720.63
2023-05-11T03:11:12.641Z,100724.41
2023-05-11T03:13:40.165Z,100733.28
2023-05-11T03:16:07.916Z,100716.59
2023-05-11T03:18:36.344Z,100721.94
2023-05-11T03:21:04.574Z,100716.66
2023-05-11T03:23:32.507Z,100721.09
2023-05-11T03:26:00.189Z,100729.97
2023-05-11T03:28:28.148Z,100724.69
2023-05-11T03:30:55.380Z,100726.50
2023-05-11T03:33:22.922Z,100727.44
2023-05-11T03:35:51.507Z,100733.47
2023-05-11T03:38:22.808Z,100731.66
2023-05-11T03:40:52.081Z,100734.19
2023-05-11T03:43:20.327Z,100732.44
2023-05-11T03:45:48.539Z,100739.41
2023-05-11T03:48:18.995Z,100736.75
2023-05-11T03:50:47.368Z,100729.69
2023-05-11T03:53:15.933Z,100731.25
2023-05-11T03:55:43.336Z,100724.22
2023-05-11T03:58:11.127Z,100732.97
2023-05-11T04:00:40.057Z,100736.47
2023-05-11T04:03:09.083Z,100729.38
2023-05-11T04:05:36.379Z,100732.88
2023-05-11T04:08:05.006Z,100729.28
2023-05-11T04:10:32.303Z,100731.63
2023-05-11T04:12:59.538Z,100727.94
2023-05-11T04:15:26.764Z,100732.16
2023-05-11T04:17:54.027Z,100735.47
2023-05-11T04:20:21.482Z,100732.63
2023-05-11T04:22:48.713Z,100727.16
2023-05-11T04:25:16.625Z,100729.59
2023-05-11T04:27:43.833Z,100735.53
2023-05-11T04:30:11.348Z,100743.03
2023-05-11T04:32:38.719Z,100740.97
2023-05-11T04:35:06.414Z,100740.75
2023-05-11T04:37:33.638Z,100736.09
2023-05-11T04:40:00.901Z,100745.53
2023-05-11T04:42:30.150Z,100747.03
2023-05-11T04:44:57.368Z,100743.22
2023-05-11T04:47:24.762Z,100748.94
2023-05-11T04:49:52.117Z,100752.13
2023-05-11T04:52:19.319Z,100754.47
2023-05-11T04:54:46.656Z,100754.91
2023-05-11T04:57:13.854Z,100749.13
2023-05-11T04:59:41.148Z,100759.28
2023-05-11T05:02:26.365Z,100751.78
2023-05-11T05:04:53.594Z,100760.69
2023-05-11T05:07:20.870Z,100768.00
2023-05-11T05:09:48.207Z,100761.09
2023-05-11T05:12:15.551Z,100756.47
2023-05-11T05:14:42.728Z,100771.69
2023-05-11T05:17:10.065Z,100771.25
2023-05-11T05:19:37.438Z,100765.44
2023-05-11T05:22:05.353Z,100767.34
2023-05-11T05:24:32.660Z,100766.69
2023-05-11T05:26:59.827Z,100764.31
2023-05-11T05:29:27.060Z,100762.22
2023-05-11T05:31:56.713Z,100772.38
2023-05-11T05:34:23.889Z,100770.72
2023-05-11T05:36:51.178Z,100773.81
2023-05-11T05:39:18.530Z,100773.22
2023-05-11T05:41:45.821Z,100781.72
2023-05-11T05:44:13.048Z,100781.16
2023-05-11T05:46:40.353Z,100778.16
2023-05-11T05:49:07.693Z,100785.34
2023-05-11T05:51:34.913Z,100791.25
2023-05-11T05:54:02.126Z,100793.13
2023-05-11T05:56:29.308Z,100797.97
2023-05-11T05:58:56.601Z,100794.63
2023-05-11T06:01:24.225Z,100795.03
2023-05-11T06:03:52.072Z,100803.56
2023-05-11T06:06:19.571Z,100799.50
2023-05-11T06:08:46.909Z,100798.81
2023-05-11T06:11:14.181Z,100803.91
2023-05-11T06:13:41.420Z,100805.13
2023-05-11T06:16:08.726Z,100806.13
2023-05-11T06:18:36.184Z,100799.97
2023-05-11T06:21:03.572Z,100801.09
2023-05-11T06:23:30.692Z,100796.75
2023-05-11T06:25:57.848Z,100805.69
2023-05-11T06:28:25.030Z,100799.53
2023-05-11T06:30:52.343Z,100804.97
2023-05-11T06:33:19.550Z,100801.72
2023-05-11T06:35:46.732Z,100803.50
2023-05-11T06:38:13.932Z,100798.28
2023-05-11T06:40:41.279Z,100803.34
2023-05-11T06:43:08.681Z,100808.19
2023-05-11T06:45:35.927Z,100806.31
2023-05-11T06:48:03.940Z,100802.38
2023-05-11T06:50:31.366Z,100805.47
2023-05-11T06:52:58.686Z,100804.88
2023-05-11T06:55:27.699Z,100806.53
2023-05-11T06:57:55.040Z,100799.81
2023-05-11T07:00:22.355Z,100796.19
2023-05-11T07:02:49.902Z,100808.06
2023-05-11T07:05:17.334Z,100811.53
2023-05-11T07:07:44.568Z,100805.47
2023-05-11T07:10:12.070Z,100808.06
2023-05-11T07:12:39.261Z,100810.13
2023-05-11T07:15:07.220Z,100806.69
2023-05-11T07:17:34.498Z,100815.78
2023-05-11T07:20:01.772Z,100805.00
2023-05-11T07:22:28.995Z,100811.56
2023-05-11T07:24:56.237Z,100814.59
2023-05-11T07:27:23.436Z,100814.84
2023-05-11T07:29:50.770Z,100810.69
2023-05-11T07:32:17.982Z,100808.88
2023-05-11T07:34:45.808Z,100811.06
2023-05-11T07:37:13.180Z,100805.88
2023-05-11T07:39:40.889Z,100803.66
2023-05-11T07:42:08.372Z,100804.78
2023-05-11T07:44:37.436Z,100808.50
2023-05-11T07:47:04.843Z,100807.53
2023-05-11T07:49:42.966Z,100807.09
2023-05-11T07:52:11.672Z,100813.84
2023-05-11T07:54:40.361Z,100804.97
2023-05-11T07:57:07.893Z,100800.00
2023-05-11T07:59:35.142Z,100801.97
2023-05-11T08:02:02.671Z,100802.91
2023-05-11T08:04:30.433Z,100805.78
2023-05-11T08:06:58.383Z,100803.78
2023-05-11T08:09:25.707Z,100803.97
2023-05-11T08:11:54.017Z,100807.91
2023-05-11T08:14:21.270Z,100798.88
2023-05-11T08:16:49.811Z,100804.03
2023-05-11T08:19:17.191Z,100810.16
2023-05-11T08:21:46.343Z,100807.09
2023-05-11T08:24:13.649Z,100808.50
2023-05-11T08:26:41.085Z,100809.94
2023-05-11T08:29:08.385Z,100805.88
2023-05-11T08:31:35.668Z,100812.69
2023-05-11T08:34:03.109Z,100807.81
2023-05-11T08:36:30.465Z,100810.25
2023-05-11T08:38:59.379Z,100808.03
2023-05-11T08:41:26.798Z,100801.94
2023-05-11T08:43:54.701Z,100811.94
2023-05-11T08:46:24.322Z,100815.50
2023-05-11T08:48:51.650Z,100808.03
2023-05-11T08:51:18.984Z,100809.50
2023-05-11T08:53:46.305Z,100803.03
2023-05-11T08:56:13.690Z,100810.97
2023-05-11T08:58:42.956Z,100803.84
2023-05-11T09:01:12.475Z,100808.25
2023-05-11T09:03:40.640Z,100798.22
2023-05-11T09:06:08.943Z,100796.63
2023-05-11T09:08:37.943Z,100801.06
2023-05-11T09:11:06.226Z,100790.94
2023-05-11T09:13:33.986Z,100794.16
2023-05-11T09:16:01.388Z,100793.66
2023-05-11T09:18:28.802Z,100792.41
2023-05-11T09:20:56.138Z,100785.34
2023-05-11T09:23:27.040Z,100801.16
2023-05-11T09:25:54.996Z,100800.81
2023-05-11T09:28:25.404Z,100789.09
2023-05-11T09:30:53.853Z,100795.13
2023-05-11T09:33:23.857Z,100800.22
2023-05-11T09:35:51.807Z,100802.91
2023-05-11T09:38:23.157Z,100803.19
2023-05-11T09:40:54.940Z,100798.50
2023-05-11T09:43:26.400Z,100801.69
2023-05-11T09:45:56.185Z,100792.63
2023-05-11T09:48:29.092Z,100801.91
2023-05-11T09:51:06.652Z,100812.63
2023-05-11T09:53:42.886Z,100797.03
2023-05-11T09:56:11.295Z,100803.09
2023-05-11T09:58:57.329Z,100793.16
2023-05-11T10:01:34.843Z,100802.91
2023-05-11T10:04:21.523Z,100802.91
2023-05-11T10:06:55.740Z,100805.78
2023-05-11T10:09:25.546Z,100793.16
2023-05-11T10:11:53.742Z,100790.78
2023-05-11T10:14:21.923Z,100785.75
2023-05-11T10:16:50.025Z,100795.16
2023-05-11T10:19:17.878Z,100788.94
2023-05-11T10:21:46.894Z,100784.72
2023-05-11T10:24:14.502Z,100785.06
2023-05-11T10:26:42.464Z,100785.72
2023-05-11T10:29:10.858Z,100775.56
2023-05-11T10:31:38.683Z,100788.38
2023-05-11T10:34:06.238Z,100792.28
2023-05-11T10:36:34.193Z,100770.19
2023-05-11T10:39:01.436Z,100783.88
2023-05-11T10:42:01.590Z,100791.28
2023-05-11T10:44:28.719Z,100782.88
2023-05-11T10:47:22.056Z,100772.69
2023-05-11T10:49:58.353Z,100773.09
2023-05-11T10:52:57.822Z,100776.31
2023-05-11T10:55:49.969Z,100779.91
2023-05-11T10:58:44.742Z,100777.47
2023-05-11T11:01:22.719Z,100777.50
2023-05-11T11:04:02.809Z,100779.06
2023-05-11T11:06:31.521Z,100782.59
2023-05-11T11:09:02.159Z,100772.97
2023-05-11T11:11:46.476Z,100768.19
2023-05-11T11:14:15.765Z,100765.31
2023-05-11T11:17:18.278Z,100771.06
2023-05-11T11:19:46.032Z,100775.41
2023-05-11T11:22:35.106Z,100770.28
2023-05-11T11:25:05.239Z,100770.00
2023-05-11T11:27:41.865Z,100763.03
2023-05-11T11:30:23.041Z,100772.06
2023-05-11T11:32:53.113Z,100770.69
2023-05-11T11:35:39.179Z,100776.31
2023-05-11T11:38:06.995Z,100786.59
2023-05-11T11:40:50.647Z,100786.78
2023-05-11T11:43:20.366Z,100782.06
2023-05-11T11:45:53.733Z,100780.91
2023-05-11T11:48:31.380Z,100780.41
2023-05-11T11:51:04.297Z,100784.94
2023-05-11T11:53:37.771Z,100790.50
2023-05-11T11:56:26.456Z,100791.97
2023-05-11T11:58:56.931Z,100790.16
2023-05-11T12:01:27.622Z,100795.00
2023-05-11T12:04:40.790Z,100791.16
2023-05-11T12:07:10.031Z,100793.97
2023-05-11T12:09:38.454Z,100793.00
2023-05-11T12:12:06.604Z,100791.16
2023-05-11T12:14:34.794Z,100789.81
2023-05-11T12:17:05.437Z,100801.56
2023-05-11T12:19:32.680Z,100797.72
2023-05-11T12:22:00.260Z,100795.16
2023-05-11T12:24:27.631Z,100808.59
2023-05-11T12:27:19.923Z,100794.22
2023-05-11T12:29:51.053Z,100791.22
2023-05-11T12:32:28.929Z,100792.09
2023-05-11T12:35:01.322Z,100794.06
2023-05-11T12:37:31.991Z,100794.69
2023-05-11T12:39:59.556Z,100794.72
2023-05-11T12:42:26.735Z,100778.81
2023-05-11T12:44:54.097Z,100791.78
2023-05-11T12:47:21.375Z,100794.19
2023-05-11T12:49:48.634Z,100800.94
2023-05-11T12:52:15.949Z,100792.13
2023-05-11T12:54:50.308Z,100801.19
2023-05-11T12:57:28.685Z,100789.28
2023-05-11T13:00:19.444Z,100781.06
2023-05-11T13:02:54.988Z,100796.56
2023-05-11T13:05:26.747Z,100795.31
2023-05-11T13:08:02.068Z,100799.00
2023-05-11T13:10:29.412Z,100805.47
2023-05-11T13:12:57.171Z,100790.09
2023-05-11T13:15:25.489Z,100793.72
2023-05-11T13:17:58.533Z,100799.28
2023-05-11T13:20:29.589Z,100799.13
2023-05-11T13:23:10.572Z,100786.19
2023-05-11T13:25:48.608Z,100786.72
2023-05-11T13:28:16.717Z,100785.91
2023-05-11T13:30:44.798Z,100794.69
2023-05-11T13:33:12.353Z,100791.56
2023-05-11T13:35:41.786Z,100784.31
2023-05-11T13:38:09.796Z,100792.81
2023-05-11T13:40:37.672Z,100787.25
2023-05-11T13:43:05.096Z,100796.41
2023-05-11T13:45:32.391Z,100776.53
2023-05-11T13:47:59.738Z,100789.22
2023-05-11T13:50:27.245Z,100781.34
2023-05-11T13:52:54.656Z,100785.66
2023-05-11T13:55:22.215Z,100780.13
2023-05-11T13:57:49.584Z,100781.03
2023-05-11T14:00:17.312Z,100785.44
2023-05-11T14:02:44.923Z,100779.25
2023-05-11T14:05:13.802Z,100784.16
2023-05-11T14:07:47.155Z,100774.81
2023-05-11T14:10:16.915Z,100777.13
2023-05-11T14:12:44.178Z,100781.06
2023-05-11T14:15:11.885Z,100777.00
2023-05-11T14:17:41.806Z,100769.97
2023-05-11T14:20:10.130Z,100786.28
2023-05-11T14:22:37.554Z,100782.53
2023-05-11T14:25:05.504Z,100776.75
2023-05-11T14:27:32.855Z,100774.13
2023-05-11T14:30:00.029Z,100774.94
2023-05-11T14:32:27.592Z,100775.69
2023-05-11T14:34:56.036Z,100778.50
2023-05-11T14:37:23.254Z,100781.63
2023-05-11T14:39:50.864Z,100781.34
2023-05-11T14:42:18.450Z,100789.41
2023-05-11T14:44:46.397Z,100784.41
2023-05-11T14:47:13.844Z,100775.13
2023-05-11T14:49:41.183Z,100775.75
2023-05-11T14:52:08.534Z,100783.44
2023-05-11T14:54:36.757Z,100780.03
2023-05-11T14:57:05.303Z,100783.53
2023-05-11T14:59:32.699Z,100775.06
2023-05-11T15:02:00.321Z,100775.16
2023-05-11T15:04:27.947Z,100783.13
2023-05-11T15:06:57.897Z,100776.59
2023-05-11T15:09:25.400Z,100770.94
2023-05-11T15:11:52.625Z,100773.75
2023-05-11T15:14:20.636Z,100772.16
2023-05-11T15:16:52.455Z,100775.50
2023-05-11T15:19:19.876Z,100770.53
2023-05-11T15:21:47.154Z,100777.34
2023-05-11T15:24:14.499Z,100770.59
2023-05-11T15:26:41.758Z,100770.19
2023-05-11T15:29:08.970Z,100763.66
2023-05-11T15:31:36.249Z,100776.06
2023-05-11T15:34:03.669Z,100780.81
2023-05-11T15:36:31.375Z,100780.59
2023-05-11T15:38:58.601Z,100787.81
2023-05-11T15:41:26.080Z,100783.59
2023-05-11T15:43:53.548Z,100783.06
2023-05-11T15:46:21.674Z,100784.88
2023-05-11T15:48:49.193Z,100784.66
2023-05-11T15:51:17.245Z,100789.00
2023-05-11T15:53:44.593Z,100780.72
2023-05-11T15:56:14.383Z,100787.41
2023-05-11T15:58:41.608Z,100782.91
2023-05-11T16:01:09.278Z,100784.28
2023-05-11T16:03:37.145Z,100790.66
2023-05-11T16:06:07.550Z,100790.28
2023-05-11T16:08:35.180Z,100785.97
2023-05-11T16:11:02.797Z,100789.59
2023-05-11T16:13:30.103Z,100791.19
2023-05-11T16:15:57.586Z,100795.69
2023-05-11T16:18:25.236Z,100800.66
2023-05-11T16:20:53.694Z,100799.88
2023-05-11T16:23:21.144Z,100799.47
2023-05-11T16:25:48.497Z,100806.38
2023-05-11T16:28:15.756Z,100806.06
2023-05-11T16:30:43.444Z,100812.47
2023-05-11T16:33:10.753Z,100812.59
2023-05-11T16:35:38.397Z,100813.97
2023-05-11T16:38:09.692Z,100804.22
2023-05-11T16:40:38.018Z,100808.22
2023-05-11T16:43:06.314Z,100806.00
2023-05-11T16:45:33.458Z,100809.88
2023-05-11T16:48:00.763Z,100809.72
2023-05-11T16:50:28.248Z,100814.63
2023-05-11T16:52:56.248Z,100814.16
2023-05-11T16:55:23.963Z,100807.59
2023-05-11T16:57:51.764Z,100811.81
2023-05-11T17:00:19.730Z,100819.84
2023-05-11T17:02:48.910Z,100823.06
2023-05-11T17:05:18.399Z,100814.94
2023-05-11T17:07:46.905Z,100814.91
2023-05-11T17:10:17.441Z,100816.22
2023-05-11T17:12:44.845Z,100823.38
2023-05-11T17:15:12.616Z,100822.81
2023-05-11T17:17:39.828Z,100823.47
2023-05-11T17:20:07.890Z,100828.78
2023-05-11T17:22:35.335Z,100834.59
2023-05-11T17:25:05.573Z,100832.72
2023-05-11T17:27:32.901Z,100829.50
2023-05-11T17:30:00.108Z,100831.06
2023-05-11T17:32:27.674Z,100834.69
2023-05-11T17:34:54.957Z,100833.63
2023-05-11T17:37:31.068Z,100832.75
2023-05-11T17:39:59.933Z,100835.66
2023-05-11T17:42:28.296Z,100841.91
2023-05-11T17:44:56.003Z,100839.00
2023-05-11T17:47:23.217Z,100850.47
2023-05-11T17:49:50.557Z,100852.06
2023-05-11T17:52:18.065Z,100850.31
2023-05-11T17:54:45.375Z,100850.94
2023-05-11T17:57:12.548Z,100854.53
2023-05-11T17:59:39.723Z,100852.75
2023-05-11T18:02:07.657Z,100859.56
2023-05-11T18:04:35.172Z,100854.78
2023-05-11T18:07:03.788Z,100861.41
2023-05-11T18:09:30.983Z,100865.41
2023-05-11T18:11:58.171Z,100870.22
2023-05-11T18:14:25.450Z,100862.72
2023-05-11T18:16:53.017Z,100867.84
2023-05-11T18:19:20.349Z,100866.44
2023-05-11T18:21:48.027Z,100877.44
2023-05-11T18:24:17.648Z,100871.56
2023-05-11T18:26:44.974Z,100877.47
2023-05-11T18:29:12.166Z,100881.44
2023-05-11T18:31:39.790Z,100885.69
2023-05-11T18:34:07.446Z,100895.97
2023-05-11T18:36:34.909Z,100898.22
2023-05-11T18:39:02.226Z,100896.13
2023-05-11T18:41:29.668Z,100900.06
2023-05-11T18:43:57.601Z,100904.84
2023-05-11T18:46:25.526Z,100901.94
2023-05-11T18:48:53.682Z,100901.53
2023-05-11T18:51:22.665Z,100903.78
2023-05-11T18:53:53.203Z,100906.88
2023-05-11T18:56:23.501Z,100907.41
2023-05-11T18:58:50.910Z,100913.03
2023-05-11T19:01:19.885Z,100909.81
2023-05-11T19:03:47.298Z,100912.75
2023-05-11T19:06:14.858Z,100926.53
2023-05-11T19:08:42.336Z,100922.31
2023-05-11T19:11:10.463Z,100924.53
2023-05-11T19:13:38.886Z,100928.47
2023-05-11T19:16:09.801Z,100928.19
2023-05-11T19:18:38.742Z,100934.53
2023-05-11T19:21:06.878Z,100943.53
2023-05-11T19:23:34.283Z,100946.47
2023-05-11T19:26:02.092Z,100941.69
2023-05-11T19:28:29.458Z,100947.28
2023-05-11T19:31:03.658Z,100947.53
2023-05-11T19:33:31.045Z,100955.97
2023-05-11T19:35:58.394Z,100955.38
2023-05-11T19:38:25.672Z,100964.66
2023-05-11T19:40:53.454Z,100959.03
2023-05-11T19:43:22.890Z,100962.25
2023-05-11T19:45:50.098Z,100957.03
2023-05-11T19:48:17.990Z,100966.28
2023-05-11T19:50:45.387Z,100966.81
2023-05-11T19:53:12.661Z,100964.53
2023-05-11T19:55:41.216Z,100966.75
2023-05-11T19:58:08.561Z,100971.66
2023-05-11T20:00:36.995Z,100977.50
2023-05-11T20:03:04.376Z,100976.94
2023-05-11T20:05:31.838Z,100973.94
2023-05-11T20:07:59.668Z,100984.03
2023-05-11T20:10:26.942Z,100983.72
2023-05-11T20:12:54.322Z,100988.31
2023-05-11T20:15:21.991Z,100987.88
2023-05-11T20:17:50.198Z,100988.84
2023-05-11T20:20:18.202Z,100986.31
2023-05-11T20:22:45.722Z,100991.75
2023-05-11T20:25:18.345Z,100987.56
2023-05-11T20:27:49.125Z,100987.66
2023-05-11T20:30:16.973Z,100992.16
2023-05-11T20:35:14.984Z,100990.72
2023-05-11T20:37:42.460Z,100994.50
2023-05-11T20:40:11.281Z,100998.28
2023-05-11T20:42:38.924Z,100991.50
2023-05-11T20:45:07.479Z,100996.97
2023-05-11T20:47:35.041Z,100993.59
2023-05-11T20:50:02.414Z,101001.72
2023-05-11T20:52:30.137Z,101000.03
2023-05-11T20:54:57.420Z,100996.75
2023-05-11T20:57:26.059Z,100996.16
2023-05-11T21:02:23.572Z,101000.34
2023-05-11T21:04:51.905Z,100999.59
2023-05-11T21:07:21.529Z,101003.38
2023-05-11T21:09:48.905Z,100999.03
2023-05-11T21:12:16.070Z,101002.91
2023-05-11T21:14:43.267Z,101000.47
2023-05-11T21:17:10.587Z,100998.06
2023-05-11T21:19:37.832Z,101003.75
2023-05-11T21:22:07.240Z,101002.22
2023-05-11T21:24:37.695Z,101008.63
2023-05-11T21:27:05.052Z,101006.22
2023-05-11T21:29:32.392Z,100999.47
2023-05-11T21:31:59.568Z,101004.06
2023-05-11T21:34:26.810Z,101006.00
2023-05-11T21:36:54.183Z,101002.75
2023-05-11T21:39:21.476Z,101011.56
2023-05-11T21:41:48.710Z,101010.72
2023-05-11T21:44:16.137Z,101020.53
2023-05-11T21:46:43.458Z,101014.38
2023-05-11T21:49:11.974Z,101024.28
2023-05-11T21:51:39.250Z,101019.94
2023-05-11T21:54:06.830Z,101030.56
2023-05-11T21:56:34.526Z,101025.63
2023-05-11T21:59:01.759Z,101033.75
2023-05-11T22:01:29.078Z,101033.75
2023-05-11T22:03:56.765Z,101035.56
2023-05-11T22:06:24.053Z,101038.31
2023-05-11T22:08:51.261Z,101034.97
2023-05-11T22:11:19.519Z,101042.19
2023-05-11T22:18:43.293Z,101039.81
2023-05-11T22:25:42.391Z,101036.63
2023-05-11T22:28:09.527Z,101047.28
2023-05-11T22:30:37.534Z,101046.44
2023-05-11T22:33:04.813Z,101053.34
2023-05-11T22:35:32.243Z,101046.44
2023-05-11T22:38:01.669Z,101036.78
2023-05-11T22:40:30.233Z,101044.63
2023-05-11T22:42:58.061Z,101046.56
2023-05-11T22:45:25.221Z,101048.38
2023-05-11T22:47:52.465Z,101051.91
2023-05-11T22:50:20.109Z,101055.53
2023-05-11T22:52:47.774Z,101050.44
2023-05-11T22:55:15.084Z,101050.69
2023-05-11T22:57:42.260Z,101058.19
2023-05-11T23:00:10.901Z,101056.00
2023-05-11T23:02:38.523Z,101056.38
2023-05-11T23:05:06.240Z,101061.31
2023-05-11T23:07:33.525Z,101061.81
2023-05-11T23:10:05.757Z,101059.59
2023-05-11T23:12:34.105Z,101053.91
2023-05-11T23:15:01.320Z,101057.16
2023-05-11T23:17:28.630Z,101057.75
2023-05-11T23:19:55.979Z,101054.25
2023-05-11T23:22:23.156Z,101054.59
2023-05-11T23:24:50.458Z,101055.91
2023-05-11T23:27:17.685Z,101051.06
2023-05-11T23:29:44.962Z,101055.88
2023-05-11T23:32:12.246Z,101053.56
2023-05-11T23:34:39.430Z,101054.78
2023-05-11T23:37:07.328Z,101054.28
2023-05-11T23:39:34.735Z,101052.19
2023-05-11T23:42:01.982Z,101045.53
2023-05-11T23:44:29.173Z,101046.84
2023-05-11T23:46:56.623Z,101052.38
2023-05-11T23:49:23.886Z,101050.06
2023-05-11T23:51:51.029Z,101053.06
2023-05-11T23:54:18.188Z,101052.44
2023-05-11T23:56:46.728Z,101057.13
2023-05-11T23:59:14.177Z,101053.97
